Time;durP1;ratioP1;P1;durP2;ratioP2;P2;SDS_P1;SDS_P2;PMS_P1;PMS_P2;Temp;Humidity;BMP_temperature;BMP_pressure;BME280_temperature;BME280_humidity;BME280_pressure;Samples;Min_cycle;Max_cycle;Signal;HPM_P1;HPM_P2
2023/05/29 00:01:08;;;;;;;19.73;8.35;;;;;;;10.03;100.00;163186.88;5071207;28;20044;-62
2023/05/29 00:03:33;;;;;;;18.55;5.20;;;;;;;9.98;100.00;163173.41;5070108;28;20081;-63
2023/05/29 00:06:00;;;;;;;21.50;6.93;;;;;;;9.96;100.00;163169.38;5071460;28;20028;-63
2023/05/29 00:08:26;;;;;;;24.02;8.57;;;;;;;9.92;100.00;163157.22;5070014;28;20369;-62
2023/05/29 00:10:51;;;;;;;27.15;6.50;;;;;;;9.88;100.00;163146.41;5071172;28;20062;-62
2023/05/29 00:13:16;;;;;;;19.90;6.95;;;;;;;9.83;100.00;163135.63;5071014;28;20024;-62
2023/05/29 00:15:42;;;;;;;22.23;6.05;;;;;;;9.80;100.00;163127.50;5069108;28;20036;-62
2023/05/29 00:18:07;;;;;;;21.08;10.20;;;;;;;9.81;100.00;163130.22;5071353;28;20388;-61
2023/05/29 00:20:34;;;;;;;40.28;10.45;;;;;;;9.75;100.00;163114.03;5069471;28;20063;-63
2023/05/29 00:22:59;;;;;;;19.23;6.95;;;;;;;9.70;100.00;163100.56;5071395;28;20024;-62
2023/05/29 00:25:24;;;;;;;19.25;9.90;;;;;;;9.67;100.00;163092.44;5069716;28;20588;-61
2023/05/29 00:27:50;;;;;;;23.35;8.68;;;;;;;9.64;100.00;163084.38;5070635;28;20028;-63
2023/05/29 00:30:15;;;;;;;26.10;7.05;;;;;;;9.62;100.00;163080.31;5069500;28;20037;-62
2023/05/29 00:32:40;;;;;;;26.20;9.95;;;;;;;9.60;100.00;163073.56;5070493;28;20674;-62
2023/05/29 00:35:06;;;;;;;22.65;8.60;;;;;;;9.56;100.00;163062.78;5069339;28;20491;-63
2023/05/29 00:37:32;;;;;;;27.58;10.75;;;;;;;9.52;100.00;163053.34;5070873;28;20111;-62
2023/05/29 00:39:57;;;;;;;37.10;9.18;;;;;;;9.49;100.00;163046.56;5069588;28;20036;-61
2023/05/29 00:42:22;;;;;;;23.63;8.32;;;;;;;9.47;100.00;163041.22;5070970;28;20032;-62
2023/05/29 00:44:48;;;;;;;22.45;6.75;;;;;;;9.45;100.00;163035.81;5068018;28;20036;-62
2023/05/29 00:47:13;;;;;;;37.15;14.20;;;;;;;9.45;100.00;163034.47;5070854;28;20029;-63
2023/05/29 00:49:39;;;;;;;18.75;5.32;;;;;;;9.41;100.00;163025.03;5068844;28;20040;-62
2023/05/29 00:52:07;;;;;;;27.25;8.50;;;;;;;9.37;100.00;163014.22;5070652;28;20024;-62
2023/05/29 00:54:33;;;;;;;11.68;4.13;;;;;;;9.36;100.00;163012.88;5069083;28;20041;-62
2023/05/29 00:56:59;;;;;;;19.45;6.13;;;;;;;9.34;100.00;163007.47;5070467;28;20039;-63
2023/05/29 00:59:29;;;;;;;24.27;7.22;;;;;;;9.33;100.00;163003.44;5069521;28;20120;-63
2023/05/29 01:01:55;;;;;;;21.10;6.75;;;;;;;9.29;100.00;162992.63;5070445;28;20079;-63
2023/05/29 01:04:23;;;;;;;11.90;6.55;;;;;;;9.27;100.00;162987.28;5068898;28;20792;-64
2023/05/29 01:06:49;;;;;;;22.38;5.90;;;;;;;9.20;100.00;162969.72;5070717;28;20020;-62
2023/05/29 01:09:16;;;;;;;20.45;8.65;;;;;;;9.26;100.00;162984.56;5069090;28;20124;-63
2023/05/29 01:12:38;;;;;;;15.98;7.70;;;;;;;9.21;100.00;162973.75;5070308;28;20035;-62
2023/05/29 01:15:36;;;;;;;28.10;9.93;;;;;;;9.18;100.00;162965.69;5046458;28;20067;-63
2023/05/29 01:18:13;;;;;;;34.25;9.57;;;;;;;9.17;100.00;162962.97;5048281;28;20483;-63
2023/05/29 01:20:42;;;;;;;20.90;7.43;;;;;;;9.17;100.00;162962.97;5043188;28;20051;-63
2023/05/29 01:23:56;;;;;;;18.98;7.43;;;;;;;9.15;100.00;162957.56;5050428;28;20431;-63
2023/05/29 01:26:49;;;;;;;22.75;7.97;;;;;;;9.14;100.00;162954.88;5032046;28;20059;-63
2023/05/29 01:29:22;;;;;;;19.17;6.50;;;;;;;9.11;100.00;162946.81;5052692;28;20041;-64
2023/05/29 01:31:49;;;;;;;13.95;5.80;;;;;;;9.05;100.00;162931.97;5054333;28;20029;-64
2023/05/29 01:34:15;;;;;;;43.08;12.85;;;;;;;9.05;100.00;162930.59;5060057;28;20044;-64
2023/05/29 01:36:40;;;;;;;16.92;6.13;;;;;;;9.04;100.00;162927.94;5074352;28;20021;-64
2023/05/29 01:39:06;;;;;;;24.55;7.93;;;;;;;9.01;100.00;162919.81;5072707;28;20036;-63
2023/05/29 01:41:33;;;;;;;20.55;5.80;;;;;;;8.99;100.00;162914.41;5073741;28;20101;-64
2023/05/29 01:43:59;;;;;;;24.85;7.70;;;;;;;8.96;100.00;162907.69;5072953;28;20090;-63
2023/05/29 01:46:25;;;;;;;26.27;5.80;;;;;;;8.97;100.00;162909.06;5074307;28;20024;-64
2023/05/29 01:48:51;;;;;;;27.48;7.22;;;;;;;8.96;100.00;162906.34;5072221;28;20067;-64
2023/05/29 01:51:16;;;;;;;23.67;9.27;;;;;;;8.92;100.00;162895.53;5073967;28;20391;-63
2023/05/29 01:53:42;;;;;;;21.45;5.93;;;;;;;8.91;100.00;162892.81;5072388;28;20510;-63
2023/05/29 01:56:09;;;;;;;20.98;7.68;;;;;;;8.89;100.00;162890.19;5073658;28;20111;-63
2023/05/29 01:58:35;;;;;;;30.38;9.05;;;;;;;8.87;100.00;162884.78;5072223;28;20493;-62
2023/05/29 02:01:03;;;;;;;26.50;6.95;;;;;;;8.84;100.00;162876.66;5073647;28;20506;-62
2023/05/29 02:03:29;;;;;;;24.98;8.32;;;;;;;8.84;100.00;162875.34;5071942;28;20032;-62
2023/05/29 02:05:55;;;;;;;23.23;7.95;;;;;;;8.81;100.00;162868.59;5073470;28;20031;-63
2023/05/29 02:08:21;;;;;;;26.30;10.00;;;;;;;8.79;100.00;162863.19;5072266;28;20110;-63
2023/05/29 02:10:46;;;;;;;26.42;7.93;;;;;;;8.73;100.00;162847.03;5073244;28;20024;-63
2023/05/29 02:13:11;;;;;;;21.80;9.07;;;;;;;8.77;100.00;162857.78;5073443;28;20036;-63
2023/05/29 02:15:37;;;;;;;17.33;5.63;;;;;;;8.77;100.00;162856.47;5072067;28;20048;-64
2023/05/29 02:18:02;;;;;;;18.90;5.55;;;;;;;8.72;100.00;162844.31;5072953;28;20540;-63
2023/05/29 02:20:28;;;;;;;26.23;10.82;;;;;;;8.70;100.00;162838.91;5071133;28;20277;-63
2023/05/29 02:22:53;;;;;;;30.40;8.52;;;;;;;8.68;100.00;162833.50;5073401;28;20466;-64
2023/05/29 02:25:18;;;;;;;37.95;9.90;;;;;;;8.66;100.00;162828.16;5071878;28;20062;-63
2023/05/29 02:27:44;;;;;;;28.30;8.32;;;;;;;8.67;100.00;162830.84;5072663;28;20067;-64
2023/05/29 02:30:10;;;;;;;21.75;7.10;;;;;;;8.65;100.00;162825.44;5072067;28;20041;-63
2023/05/29 02:32:35;;;;;;;17.58;7.22;;;;;;;8.66;100.00;162828.16;5072974;28;20135;-64
2023/05/29 02:35:01;;;;;;;19.95;6.20;;;;;;;8.62;100.00;162817.34;5071607;28;20530;-63
2023/05/29 02:37:26;;;;;;;22.85;5.32;;;;;;;8.62;100.00;162817.34;5073141;28;20031;-63
2023/05/29 02:39:52;;;;;;;15.50;6.22;;;;;;;8.55;100.00;162801.16;5070893;28;20055;-63
2023/05/29 02:42:17;;;;;;;16.00;6.32;;;;;;;8.56;100.00;162802.53;5072939;28;20025;-63
2023/05/29 02:44:42;;;;;;;29.15;7.72;;;;;;;8.50;100.00;162786.31;5071385;28;20043;-63
2023/05/29 02:47:08;;;;;;;18.80;6.65;;;;;;;8.48;100.00;162782.28;5072960;28;20028;-64
2023/05/29 02:49:33;;;;;;;21.73;5.95;;;;;;;8.46;100.00;162776.84;5071141;28;20048;-64
2023/05/29 02:51:58;;;;;;;14.02;5.93;;;;;;;8.44;100.00;162771.50;5073101;28;20025;-63
2023/05/29 02:54:25;;;;;;;23.13;8.20;;;;;;;8.38;100.00;162756.66;5071062;28;20094;-63
2023/05/29 02:56:50;;;;;;;33.10;9.70;;;;;;;8.37;100.00;162752.63;5072628;28;20032;-63
2023/05/29 02:59:16;;;;;;;20.77;6.65;;;;;;;8.34;100.00;162744.50;5071490;28;20479;-63
2023/05/29 03:01:42;;;;;;;23.10;6.88;;;;;;;8.31;100.00;162736.41;5072355;28;20088;-62
2023/05/29 03:04:09;;;;;;;34.97;10.32;;;;;;;8.28;100.00;162728.34;5070925;28;20556;-62
2023/05/29 03:06:36;;;;;;;26.45;5.88;;;;;;;8.24;100.00;162720.25;5072714;28;20047;-62
2023/05/29 03:09:02;;;;;;;29.95;6.53;;;;;;;8.27;100.00;162726.97;5069342;28;20114;-62
2023/05/29 03:11:28;;;;;;;21.35;7.75;;;;;;;8.25;100.00;162722.94;5072279;28;20060;-62
2023/05/29 03:13:54;;;;;;;30.23;7.35;;;;;;;8.24;100.00;162720.25;5071049;28;20056;-63
2023/05/29 03:16:19;;;;;;;34.88;10.60;;;;;;;8.22;100.00;162713.50;5072788;28;20459;-62
2023/05/29 03:18:45;;;;;;;18.45;10.65;;;;;;;8.21;100.00;162712.19;5070555;28;20032;-62
2023/05/29 03:21:10;;;;;;;37.58;11.98;;;;;;;8.22;100.00;162713.50;5072666;28;20402;-62
2023/05/29 03:23:35;;;;;;;25.55;9.10;;;;;;;8.20;100.00;162709.47;5070641;28;20016;-63
2023/05/29 03:26:02;;;;;;;42.20;17.55;;;;;;;8.21;100.00;162710.81;5072185;28;20383;-63
2023/05/29 03:28:28;;;;;;;22.88;6.85;;;;;;;8.22;100.00;162714.88;5071098;28;20024;-61
2023/05/29 03:30:53;;;;;;;27.80;6.80;;;;;;;8.21;100.00;162712.19;5072168;28;20471;-63
2023/05/29 03:33:18;;;;;;;22.33;6.03;;;;;;;8.21;100.00;162712.19;5070234;28;20024;-62
2023/05/29 03:35:44;;;;;;;12.88;5.15;;;;;;;8.14;100.00;162693.31;5071994;28;20025;-64
2023/05/29 03:38:09;;;;;;;27.38;8.43;;;;;;;8.15;100.00;162694.63;5072108;28;20035;-63
2023/05/29 03:40:34;;;;;;;37.20;8.18;;;;;;;8.14;100.00;162693.31;5069953;28;20040;-64
2023/05/29 03:43:00;;;;;;;20.35;5.82;;;;;;;8.15;100.00;162696.00;5072000;28;20029;-63
2023/05/29 03:45:25;;;;;;;23.88;7.10;;;;;;;8.14;100.00;162693.31;5070399;28;20040;-62
2023/05/29 03:47:50;;;;;;;32.20;7.05;;;;;;;8.13;100.00;162690.63;5071305;28;20422;-63
2023/05/29 03:50:16;;;;;;;33.10;10.60;;;;;;;8.10;100.00;162683.88;5069538;28;20044;-62
2023/05/29 03:52:42;;;;;;;34.92;9.57;;;;;;;8.10;100.00;162682.50;5071267;28;20028;-63
2023/05/29 03:55:12;;;;;;;24.73;6.85;;;;;;;8.11;100.00;162685.19;5070066;28;20040;-63
2023/05/29 03:57:41;;;;;;;29.67;7.78;;;;;;;8.12;100.00;162687.91;5071738;28;20017;-63
2023/05/29 04:00:26;;;;;;;29.40;8.60;;;;;;;8.10;100.00;162683.88;5070158;28;20037;-64
2023/05/29 04:02:51;;;;;;;20.38;7.00;;;;;;;8.10;100.00;162682.50;5070842;28;20052;-64
2023/05/29 04:05:17;;;;;;;26.65;6.57;;;;;;;8.10;100.00;162683.88;5070078;28;20097;-65
2023/05/29 04:07:42;;;;;;;23.98;6.68;;;;;;;8.12;100.00;162687.91;5070956;28;20486;-64
2023/05/29 04:10:08;;;;;;;22.30;7.18;;;;;;;8.12;100.00;162687.91;5069685;28;20394;-64
2023/05/29 04:12:33;;;;;;;24.33;7.35;;;;;;;8.12;100.00;162687.91;5071042;28;20028;-62
2023/05/29 04:14:59;;;;;;;27.48;6.70;;;;;;;8.14;100.00;162691.94;5069840;28;20042;-64
2023/05/29 04:17:25;;;;;;;17.42;4.82;;;;;;;8.16;100.00;162698.66;5071173;28;20364;-63
2023/05/29 04:19:50;;;;;;;21.00;8.73;;;;;;;8.17;100.00;162701.38;5069727;28;20540;-63
2023/05/29 04:22:15;;;;;;;19.73;5.15;;;;;;;8.09;100.00;162681.19;5071428;28;20021;-63
2023/05/29 04:24:43;;;;;;;20.50;7.18;;;;;;;8.26;100.00;162724.31;5069284;28;20075;-63
2023/05/29 04:27:12;;;;;;;25.27;7.88;;;;;;;8.29;100.00;162732.38;5071127;28;20028;-63
2023/05/29 04:29:42;;;;;;;26.38;6.47;;;;;;;8.31;100.00;162736.41;5069145;28;20043;-63
2023/05/29 04:32:08;;;;;;;17.00;4.53;;;;;;;8.32;100.00;162739.09;5070936;28;20112;-63
2023/05/29 04:34:34;;;;;;;21.95;9.45;;;;;;;8.36;100.00;162749.91;5069375;28;20092;-60
2023/05/29 04:36:59;;;;;;;20.40;5.53;;;;;;;8.39;100.00;162757.97;5071126;28;20094;-61
2023/05/29 04:39:25;;;;;;;26.58;5.50;;;;;;;8.36;100.00;162749.91;5069347;28;20033;-61
2023/05/29 04:41:51;;;;;;;30.83;7.68;;;;;;;8.44;100.00;162770.13;5065169;28;21538;-59
2023/05/29 04:44:17;;;;;;;16.60;4.30;;;;;;;8.49;100.00;162785.00;5066444;28;20487;-60
2023/05/29 04:46:43;;;;;;;28.23;9.70;;;;;;;8.47;100.00;162779.59;5070355;28;20035;-61
2023/05/29 04:49:10;;;;;;;14.43;6.25;;;;;;;8.54;100.00;162798.47;5069545;28;20040;-62
2023/05/29 04:51:36;;;;;;;20.10;7.88;;;;;;;8.54;100.00;162798.47;5070700;28;20081;-61
2023/05/29 04:54:02;;;;;;;21.75;5.82;;;;;;;8.60;100.00;162811.97;5069005;28;20028;-61
2023/05/29 04:56:28;;;;;;;20.88;8.60;;;;;;;8.64;100.00;162822.75;5070819;28;20475;-62
2023/05/29 04:58:53;;;;;;;22.70;5.03;;;;;;;8.66;100.00;162829.47;5068649;28;20046;-60
2023/05/29 05:01:18;;;;;;;19.92;6.50;;;;;;;8.72;100.00;162844.31;5070128;28;20045;-60
2023/05/29 05:03:44;;;;;;;29.17;9.95;;;;;;;8.80;100.00;162865.91;5069207;28;20043;-61
2023/05/29 05:06:10;;;;;;;19.63;6.43;;;;;;;8.84;100.00;162876.66;5070973;28;20463;-60
2023/05/29 05:08:36;;;;;;;17.20;6.88;;;;;;;8.87;100.00;162884.78;5068421;28;20052;-60
2023/05/29 05:11:01;;;;;;;29.10;10.27;;;;;;;8.95;100.00;162903.66;5071014;28;20028;-61
2023/05/29 05:13:27;;;;;;;20.10;5.05;;;;;;;8.97;100.00;162909.06;5068627;28;20625;-62
2023/05/29 05:15:53;;;;;;;15.82;5.40;;;;;;;8.99;100.00;162914.41;5070005;28;20032;-62
2023/05/29 05:18:19;;;;;;;16.42;5.38;;;;;;;9.01;100.00;162919.81;5069376;28;20021;-62
2023/05/29 05:20:45;;;;;;;17.33;7.28;;;;;;;8.99;100.00;162914.41;5070441;28;20023;-63
2023/05/29 05:23:10;;;;;;;17.30;4.57;;;;;;;9.02;100.00;162922.53;5070228;28;20104;-63
2023/05/29 05:25:36;;;;;;;20.35;5.32;;;;;;;9.04;100.00;162929.25;5067456;28;20039;-62
2023/05/29 05:28:03;;;;;;;19.55;7.00;;;;;;;9.07;100.00;162936.00;5070677;28;20113;-62
2023/05/29 05:30:28;;;;;;;17.80;5.45;;;;;;;9.13;100.00;162952.16;5068651;28;20402;-62
2023/05/29 05:32:54;;;;;;;21.35;6.50;;;;;;;9.21;100.00;162972.41;5070257;28;20024;-62
2023/05/29 05:35:20;;;;;;;27.85;6.40;;;;;;;9.28;100.00;162989.91;5069105;28;20036;-62
2023/05/29 05:37:45;;;;;;;27.75;7.63;;;;;;;9.32;100.00;163002.06;5069920;28;20021;-63
2023/05/29 05:40:10;;;;;;;17.70;8.60;;;;;;;9.39;100.00;163018.25;5068707;28;20090;-62
2023/05/29 05:42:36;;;;;;;45.25;7.93;;;;;;;9.46;100.00;163038.50;5070241;28;20070;-61
2023/05/29 05:45:02;;;;;;;36.13;5.78;;;;;;;9.51;100.00;163051.97;5068742;28;20056;-62
2023/05/29 05:47:28;;;;;;;24.02;5.35;;;;;;;9.61;100.00;163076.28;5069911;28;20490;-63
2023/05/29 05:49:54;;;;;;;15.05;5.38;;;;;;;9.66;100.00;163091.13;5068701;28;20047;-61
2023/05/29 05:52:20;;;;;;;20.15;7.75;;;;;;;9.74;100.00;163111.34;5070449;28;20031;-60
2023/05/29 05:54:45;;;;;;;24.02;6.55;;;;;;;9.73;100.00;163108.63;5068087;28;20040;-62
2023/05/29 05:57:11;;;;;;;20.73;7.95;;;;;;;9.79;100.00;163124.81;5069737;28;20059;-61
2023/05/29 05:59:36;;;;;;;36.22;5.93;;;;;;;9.79;100.00;163124.81;5068266;28;20049;-61
2023/05/29 06:02:03;;;;;;;25.25;6.38;;;;;;;9.87;100.00;163143.69;5068347;28;20465;-61
2023/05/29 06:04:29;;;;;;;22.10;6.32;;;;;;;9.91;100.00;163154.50;5068682;28;20514;-62
2023/05/29 06:06:55;;;;;;;12.85;4.65;;;;;;;9.96;100.00;163169.38;5069324;28;20475;-61
2023/05/29 06:09:21;;;;;;;16.00;5.75;;;;;;;10.06;100.00;163195.00;5064071;28;20070;-61
2023/05/29 06:11:47;;;;;;;28.83;11.05;;;;;;;10.11;100.00;163207.16;5047205;28;20454;-62
2023/05/29 06:14:13;;;;;;;28.52;7.95;;;;;;;10.19;100.00;163228.75;5057621;28;20503;-64
2023/05/29 06:16:38;;;;;;;25.48;6.93;;;;;;;10.27;100.00;163248.97;5071983;28;20031;-62
2023/05/29 06:19:04;;;;;;;22.33;4.88;;;;;;;10.40;100.00;163282.78;5071882;28;20028;-62
2023/05/29 06:21:29;;;;;;;15.02;3.97;;;;;;;10.40;100.00;163284.09;5072700;28;20471;-62
2023/05/29 06:23:55;;;;;;;15.20;4.53;;;;;;;10.53;100.00;163316.53;5069514;28;20422;-62
2023/05/29 06:26:21;;;;;;;27.77;9.82;;;;;;;10.67;100.00;163354.31;5072288;28;20043;-61
2023/05/29 06:28:46;;;;;;;14.20;4.55;;;;;;;10.74;100.00;163371.84;5071661;28;20044;-62
2023/05/29 06:31:11;;;;;;;24.60;6.50;;;;;;;10.76;100.00;163377.25;5071251;28;20055;-62
2023/05/29 06:33:37;;;;;;;16.90;5.53;;;;;;;10.80;100.00;163388.03;5071050;28;20032;-61
2023/05/29 06:36:03;;;;;;;15.77;5.43;;;;;;;10.78;100.00;163384.00;5073100;28;20016;-62
2023/05/29 06:38:28;;;;;;;19.35;6.78;;;;;;;10.85;100.00;163400.19;5069141;28;20104;-62
2023/05/29 06:40:53;;;;;;;19.80;5.07;;;;;;;10.89;100.00;163411.00;5071656;28;20422;-62
2023/05/29 06:43:19;;;;;;;13.82;5.60;;;;;;;11.00;100.00;163439.34;5071571;28;20025;-62
2023/05/29 06:45:44;;;;;;;18.50;5.78;;;;;;;11.20;100.00;163492.03;5072305;28;20020;-62
2023/05/29 06:48:10;;;;;;;14.75;5.80;;;;;;;11.46;100.00;163559.50;5070464;28;20024;-62
2023/05/29 06:50:35;;;;;;;16.17;5.47;;;;;;;11.44;100.00;163555.47;5070257;28;20045;-62
2023/05/29 06:53:01;;;;;;;13.27;4.63;;;;;;;11.42;100.00;163551.44;5072302;28;20033;-62
2023/05/29 06:55:26;;;;;;;16.80;5.45;;;;;;;11.42;100.00;163551.44;5069623;28;20053;-61
2023/05/29 06:57:51;;;;;;;20.40;4.40;;;;;;;11.79;100.00;163645.97;5070673;28;20387;-62
2023/05/29 07:00:17;;;;;;;13.55;4.43;;;;;;;11.98;100.00;163697.34;5070448;28;20036;-62
2023/05/29 07:02:42;;;;;;;15.55;7.55;;;;;;;11.96;100.00;163691.88;5069088;28;20036;-63
2023/05/29 07:05:08;;;;;;;14.02;3.53;;;;;;;12.00;100.00;163701.38;5070361;28;20048;-62
2023/05/29 07:07:33;;;;;;;13.45;4.25;;;;;;;12.00;100.00;163701.38;5071067;28;20024;-62
2023/05/29 07:09:59;;;;;;;21.45;4.25;;;;;;;12.00;100.00;163701.38;5069500;28;20043;-62
2023/05/29 07:12:24;;;;;;;19.52;5.65;;;;;;;12.14;100.00;163737.88;5072207;28;20024;-61
2023/05/29 07:14:50;;;;;;;10.98;4.78;;;;;;;12.09;100.00;163724.38;5070208;28;20098;-62
2023/05/29 07:17:15;;;;;;;21.52;5.15;;;;;;;12.09;100.00;163724.38;5071166;28;20610;-62
2023/05/29 07:19:41;;;;;;;15.18;4.25;;;;;;;12.17;100.00;163746.00;5070274;28;20037;-62
2023/05/29 07:22:06;;;;;;;17.13;5.90;;;;;;;12.33;100.00;163789.22;5071489;28;20385;-62
2023/05/29 07:24:31;;;;;;;13.25;5.95;;;;;;;12.34;100.00;163791.91;5069326;28;20101;-62
2023/05/29 07:26:57;;;;;;;12.65;5.05;;;;;;;12.64;100.00;163870.28;5071411;28;20020;-62
2023/05/29 07:29:24;;;;;;;13.13;4.68;;;;;;;12.49;100.00;163829.75;5069877;28;20044;-63
2023/05/29 07:31:50;;;;;;;18.10;4.00;;;;;;;12.63;100.00;163866.25;5070688;28;20412;-62
2023/05/29 07:34:15;;;;;;;10.70;3.60;;;;;;;12.78;100.00;163905.44;5069697;28;20144;-62
2023/05/29 07:36:58;;;;;;;19.17;4.20;;;;;;;12.79;100.00;163909.53;5071010;28;20387;-62
2023/05/29 07:39:24;;;;;;;9.13;3.33;;;;;;;12.84;100.00;163921.69;5069185;28;20060;-63
2023/05/29 07:41:49;;;;;;;15.48;3.63;;;;;;;12.74;100.00;163894.63;5070978;28;20074;-62
2023/05/29 07:44:15;;;;;;;16.42;4.82;;;;;;;12.80;100.00;163910.84;5069831;28;20403;-62
2023/05/29 07:46:40;;;;;;;14.52;4.30;;;;;;;12.92;100.00;163943.28;5070331;28;20033;-62
2023/05/29 07:49:05;;;;;;;13.98;4.93;;;;;;;13.18;100.00;164012.22;5069573;28;20043;-62
2023/05/29 07:51:32;;;;;;;21.10;7.43;;;;;;;13.35;100.00;164055.50;5070783;28;20020;-62
2023/05/29 07:53:57;;;;;;;13.73;4.22;;;;;;;13.01;100.00;163967.63;5069247;28;20032;-62
2023/05/29 07:56:22;;;;;;;16.27;4.28;;;;;;;13.10;100.00;163989.25;5071277;28;20082;-63
2023/05/29 07:58:48;;;;;;;15.88;6.60;;;;;;;13.23;100.00;164023.06;5069087;28;20040;-62
2023/05/29 08:01:13;;;;;;;17.63;5.60;;;;;;;13.35;100.00;164054.16;5070325;28;20396;-63
2023/05/29 08:03:40;;;;;;;8.70;3.60;;;;;;;13.24;100.00;164027.09;5069521;28;20041;-62
2023/05/29 08:06:06;;;;;;;11.07;5.15;;;;;;;13.13;100.00;163997.38;5070986;28;20479;-62
2023/05/29 08:08:31;;;;;;;14.30;6.00;;;;;;;13.32;100.00;164048.75;5067383;28;20071;-61
2023/05/29 08:10:57;;;;;;;18.90;5.88;;;;;;;13.44;100.00;164078.56;5070927;28;20028;-62
2023/05/29 08:13:22;;;;;;;22.70;4.80;;;;;;;13.59;100.00;164119.09;5069162;28;20153;-62
2023/05/29 08:15:47;;;;;;;14.25;4.40;;;;;;;13.84;100.00;164182.69;5069902;28;20036;-62
2023/05/29 08:18:13;;;;;;;17.25;3.85;;;;;;;13.96;100.00;164216.47;5070510;28;20400;-62
2023/05/29 08:20:38;;;;;;;13.63;4.28;;;;;;;14.05;100.00;164238.09;5067778;28;20422;-62
2023/05/29 08:23:03;;;;;;;6.72;2.88;;;;;;;14.09;100.00;164250.28;5059364;28;20028;-63
2023/05/29 08:25:29;;;;;;;16.67;4.22;;;;;;;14.19;100.00;164275.97;5068836;28;20040;-63
2023/05/29 08:27:54;;;;;;;13.15;4.43;;;;;;;13.99;100.00;164223.25;5070691;28;20043;-62
2023/05/29 08:30:20;;;;;;;17.75;4.78;;;;;;;13.79;100.00;164171.84;5067898;28;20047;-63
2023/05/29 08:32:45;;;;;;;14.77;4.10;;;;;;;14.03;100.00;164232.72;5069400;28;20020;-63
2023/05/29 08:35:11;;;;;;;23.13;4.82;;;;;;;14.08;100.00;164247.56;5069244;28;20225;-63
2023/05/29 08:37:37;;;;;;;10.23;3.38;;;;;;;14.44;100.00;164340.94;5068776;28;20483;-62
2023/05/29 08:40:07;;;;;;;11.70;5.00;;;;;;;14.81;100.00;164437.06;5067226;28;20118;-63
2023/05/29 08:42:35;;;;;;;20.23;5.38;;;;;;;14.79;100.00;164432.97;5069640;28;20021;-62
2023/05/29 08:45:04;;;;;;;12.10;3.75;;;;;;;14.90;100.00;164462.78;5067203;28;20032;-62
2023/05/29 08:47:33;;;;;;;20.42;4.45;;;;;;;15.21;100.00;164544.00;5070090;28;20031;-62
2023/05/29 08:50:00;;;;;;;18.83;4.00;;;;;;;14.91;100.00;164465.50;5064485;28;20087;-63
2023/05/29 08:52:27;;;;;;;9.93;3.77;;;;;;;15.02;100.00;164492.53;5068522;28;20110;-63
2023/05/29 08:54:54;;;;;;;10.45;3.95;;;;;;;15.13;100.00;164522.31;5068204;28;20454;-63
2023/05/29 08:57:20;;;;;;;11.50;5.40;;;;;;;14.88;100.00;164457.34;5070083;28;20028;-62
2023/05/29 08:59:49;;;;;;;11.77;5.00;;;;;;;14.87;100.00;164454.63;5067163;28;20060;-62
2023/05/29 09:02:15;;;;;;;10.13;4.78;;;;;;;14.89;100.00;164460.06;5070136;28;20071;-62
2023/05/29 09:04:48;;;;;;;12.27;4.40;;;;;;;14.98;100.00;164481.72;5068847;28;20037;-62
2023/05/29 09:07:15;;;;;;;23.60;8.05;;;;;;;15.05;100.00;164500.66;5048863;28;20590;-62
2023/05/29 09:09:40;;;;;;;14.05;3.75;;;;;;;15.26;100.00;164554.78;5048167;28;20083;-62
2023/05/29 09:12:07;;;;;;;14.75;5.30;;;;;;;15.46;100.00;164608.94;5050251;28;20414;-62
2023/05/29 09:14:37;;;;;;;17.27;6.15;;;;;;;15.64;100.00;164654.97;5047346;28;20037;-62
2023/05/29 09:17:05;;;;;;;9.27;3.38;;;;;;;15.71;100.00;164675.25;5064791;28;20115;-62
2023/05/29 09:19:30;;;;;;;8.10;3.13;;;;;;;15.69;100.00;164669.88;5068870;28;20059;-62
2023/05/29 09:22:04;;;;;;;17.15;4.85;;;;;;;15.63;100.00;164652.25;5068649;28;20056;-62
2023/05/29 09:24:30;;;;;;;12.82;4.72;;;;;;;15.88;100.00;164717.31;5068759;28;20024;-62
2023/05/29 09:26:57;;;;;;;10.80;4.97;;;;;;;15.61;100.00;164646.84;5069754;28;20016;-62
2023/05/29 09:29:22;;;;;;;15.95;5.05;;;;;;;15.69;100.00;164669.88;5067356;28;20039;-62
2023/05/29 09:31:48;;;;;;;10.07;3.60;;;;;;;15.77;100.00;164690.16;5069853;28;20033;-62
2023/05/29 09:34:15;;;;;;;10.45;4.93;;;;;;;16.10;100.00;164776.91;5068193;28;20115;-61
2023/05/29 09:36:40;;;;;;;13.20;5.53;;;;;;;16.25;100.00;164816.16;5068697;28;20070;-62
2023/05/29 09:39:09;;;;;;;17.25;4.90;;;;;;;16.11;100.00;164779.63;5069978;28;20029;-63
2023/05/29 09:41:35;;;;;;;;;;;;;;;16.08;100.00;164771.47;5048777;28;20037;-62
2023/05/29 09:44:00;;;;;;;15.35;7.15;;;;;;;16.26;100.00;164818.88;5055804;28;19915;-63
2023/05/29 09:46:26;;;;;;;14.48;6.13;;;;;;;16.50;100.00;164881.19;5068223;28;20040;-63
2023/05/29 09:48:51;;;;;;;9.57;3.83;;;;;;;16.32;100.00;164835.13;5070673;28;20533;-62
2023/05/29 09:51:21;;;;;;;7.50;2.97;;;;;;;16.16;100.00;164793.16;5070716;28;20048;-62
2023/05/29 09:53:48;;;;;;;14.32;3.53;;;;;;;16.07;100.00;164768.75;5073503;28;20024;-62
2023/05/29 09:56:17;;;;;;;16.67;4.32;;;;;;;15.99;100.00;164747.09;5072015;28;20064;-62
2023/05/29 09:58:46;;;;;;;7.43;3.78;;;;;;;16.04;100.00;164760.66;5072271;28;20059;-62
2023/05/29 10:01:15;;;;;;;14.35;4.55;;;;;;;16.24;100.00;164812.09;5071989;28;20549;-62
2023/05/29 10:03:42;;;;;;;10.75;3.83;;;;;;;16.42;100.00;164860.84;5073478;28;20103;-62
2023/05/29 10:06:11;;;;;;;8.52;3.28;;;;;;;16.66;100.00;164923.16;5071023;28;20036;-62
2023/05/29 10:08:42;;;;;;;10.43;4.45;;;;;;;16.69;100.00;164931.31;5073339;28;20044;-62
2023/05/29 10:11:15;;;;;;;12.05;4.45;;;;;;;17.15;100.00;165050.59;5071903;28;20495;-62
2023/05/29 10:13:45;;;;;;;10.63;3.72;;;;;;;17.21;100.00;165066.84;5072038;28;20029;-62
2023/05/29 10:16:14;;;;;;;13.20;3.80;;;;;;;17.22;100.00;165069.56;5072083;28;20495;-62
2023/05/29 10:18:49;;;;;;;9.30;3.72;;;;;;;17.08;100.00;165034.34;5073323;28;20112;-62
2023/05/29 10:21:15;;;;;;;13.00;4.18;;;;;;;17.05;100.00;165026.19;5070339;28;20403;-62
2023/05/29 10:23:45;;;;;;;11.10;4.45;;;;;;;17.08;100.00;165034.34;5072961;28;20016;-62
2023/05/29 10:26:27;;;;;;;15.55;4.93;;;;;;;17.61;100.00;165172.53;5070940;28;20051;-62
2023/05/29 10:29:03;;;;;;;16.85;3.70;;;;;;;17.76;100.00;165211.84;5069196;28;20055;-62
2023/05/29 10:31:48;;;;;;;22.48;5.05;;;;;;;17.72;100.00;165201.03;5072626;28;20037;-62
2023/05/29 10:34:33;;;;;;;10.25;3.30;;;;;;;17.34;100.00;165102.06;5070974;28;20399;-63
2023/05/29 10:37:08;;;;;;;9.80;4.22;;;;;;;17.27;100.00;165083.09;5071909;28;20035;-62
2023/05/29 10:39:34;;;;;;;16.70;4.82;;;;;;;17.00;100.00;165011.28;5071204;28;20139;-61
2023/05/29 10:42:00;;;;;;;14.32;3.88;;;;;;;17.27;100.00;165084.50;5072842;28;20109;-61
2023/05/29 10:44:31;;;;;;;11.45;4.88;;;;;;;17.46;100.00;165131.91;5061300;28;20064;-61
2023/05/29 10:47:00;;;;;;;11.45;4.15;;;;;;;17.65;100.00;165183.41;5052812;28;20043;-61
2023/05/29 10:49:25;;;;;;;13.48;5.65;;;;;;;17.23;100.00;165072.28;5050909;28;20048;-61
2023/05/29 10:51:51;;;;;;;11.13;4.32;;;;;;;17.10;100.00;165038.41;5050647;28;20028;-61
2023/05/29 10:54:21;;;;;;;10.93;3.70;;;;;;;17.08;100.00;165034.34;5051039;28;20045;-61
2023/05/29 10:56:57;;;;;;;11.13;3.88;;;;;;;16.80;100.00;164959.75;5051236;28;20028;-61
2023/05/29 10:59:27;;;;;;;16.15;4.97;;;;;;;17.03;100.00;165019.44;5049374;28;20041;-62
2023/05/29 11:01:53;;;;;;;9.90;3.47;;;;;;;16.98;100.00;165007.22;5050590;28;20051;-61
2023/05/29 11:04:21;;;;;;;9.70;3.03;;;;;;;17.34;100.00;165100.75;5050277;28;20099;-61
2023/05/29 11:06:48;;;;;;;11.70;4.70;;;;;;;17.55;100.00;165156.28;5051100;28;20377;-61
2023/05/29 11:09:39;;;;;;;10.45;3.35;;;;;;;17.19;100.00;165061.41;5050317;28;20210;-61
2023/05/29 11:12:35;;;;;;;8.00;3.70;;;;;;;17.37;100.00;165108.84;5051678;28;20618;-61
2023/05/29 11:15:06;;;;;;;9.25;3.92;;;;;;;17.15;100.00;165050.59;5059976;28;20040;-61